首页
METAR-TAF:

METAR-TAF

机场 :

真纳国际机场

卡拉奇, 巴基斯坦

纬度: 24-54N, 经度: 067-08E, 海拔: 21米

当前天气观测

该预报发布于26分钟前的14:55 UTC
风速8节,风向西
温度 31°C
湿度 71%
气压 1000 hPa
能見度: 6000
散云层高于3000英尺

METAR: OPKC 111455Z 27008KT 6000 SCT030 31/25 Q1000 NOSIG

时间: 20:21 (15:21 UTC)

预报

该预报发布于5小时和51分钟前的09:30 UTC
预报有效从11日的 12点(UTC)到 12日的 18点(UTC)
风速10节,风向西南,有时为20节阵风
能見度: 6000
从 点(UTC)
风速12节,风向西转西南
能見度: 4000
散云层高于2000英尺
多云层高于3000英尺
小雨, 毛毛雨
成为
从 12日的 05点(UTC)到 12日的 07点(UTC)
风速12节,风向西转西南,有时为22节阵风
能見度: 6000
多云层高于3000英尺

TAF: OPKC 110930Z 1112/1218 23010G20KT 6000 BK030 FM 111800 25012KT 4000 -RADZ SCT020 BKN030 BECMG 1205/1207 24012G22KT 6000 BKN030

超过4000个机场的气象观测和天气预报(METAR&TAF报告)。

可查询的气象台以黄色和红色小点在地图上表示。

将鼠标移到小点上方,可查看气象台名称。

然后点击查看天气观测和预报。

如需切换地图:点击带黑十字的绿色按钮放大地图;点击带横线的绿色按钮缩小地图;或者点击绿色箭头查看邻近地区的地图。


METAR-TAF: